Time;durP1;ratioP1;P1;durP2;ratioP2;P2;SDS_P1;SDS_P2;PMS_P1;PMS_P2;Temp;Humidity;BMP_temperature;BMP_pressure;BME280_temperature;BME280_humidity;BME280_pressure;Samples;Min_cycle;Max_cycle;Signal;HPM_P1;HPM_P2
2023/09/21 00:02:12;;;;;;;;;;;;;;;23.02;45.16;98966.47;5032898;28;20396;-73
2023/09/21 00:04:38;;;;;;;;;;;;;;;23.02;45.32;98966.47;5032709;28;19917;-74
2023/09/21 00:07:03;;;;;;;;;;;;;;;23.03;45.10;98968.13;5032818;28;20070;-73
2023/09/21 00:09:29;;;;;;;;;;;;;;;22.98;45.09;98971.38;5033804;28;20007;-73
2023/09/21 00:11:54;;;;;;;;;;;;;;;22.97;45.22;98975.03;5032760;28;19921;-73
2023/09/21 00:14:20;;;;;;;;;;;;;;;22.92;45.31;98972.94;5033021;28;19940;-73
2023/09/21 00:16:45;;;;;;;;;;;;;;;22.88;45.17;98981.50;5033409;28;20320;-73
2023/09/21 00:19:10;;;;;;;;;;;;;;;22.83;45.55;98971.41;5030950;28;19925;-73
2023/09/21 00:21:37;;;;;;;;;;;;;;;22.80;45.65;98981.63;5030658;28;19921;-73
2023/09/21 00:24:03;;;;;;;;;;;;;;;22.75;45.60;98975.03;5032220;28;19921;-73
2023/09/21 00:26:28;;;;;;;;;;;;;;;22.75;45.65;98971.56;5032021;28;19931;-73
2023/09/21 00:28:54;;;;;;;;;;;;;;;22.75;45.55;98974.22;5031062;28;19948;-73
2023/09/21 00:31:19;;;;;;;;;;;;;;;22.73;45.49;98960.28;5031175;28;19972;-73
2023/09/21 00:33:45;;;;;;;;;;;;;;;22.66;45.88;98962.88;5030668;28;19925;-73
2023/09/21 00:36:13;;;;;;;;;;;;;;;22.67;45.90;98964.53;5032040;28;19924;-73
2023/09/21 00:38:38;;;;;;;;;;;;;;;22.66;45.70;98967.38;5030480;28;20012;-73
2023/09/21 00:41:04;;;;;;;;;;;;;;;22.65;45.61;98966.56;5032219;28;20017;-73
2023/09/21 00:43:29;;;;;;;;;;;;;;;22.63;45.79;98967.75;5030113;28;19921;-73
2023/09/21 00:45:57;;;;;;;;;;;;;;;22.59;46.14;98968.13;5030599;28;19924;-78
2023/09/21 00:48:25;;;;;;;;;;;;;;;22.56;45.95;98963.19;5014131;28;20027;-76
2023/09/21 00:50:51;;;;;;;;;;;;;;;22.51;46.35;98960.28;5030880;28;19940;-75
2023/09/21 00:53:16;;;;;;;;;;;;;;;22.47;46.29;98967.00;5030417;28;20376;-76
2023/09/21 00:55:45;;;;;;;;;;;;;;;22.45;46.53;98961.03;5030720;28;20311;-76
2023/09/21 00:58:11;;;;;;;;;;;;;;;22.44;46.37;98963.88;5014406;28;19921;-76
2023/09/21 01:00:38;;;;;;;;;;;;;;;22.37;46.79;98961.97;5031916;28;19982;-76
2023/09/21 01:03:11;;;;;;;;;;;;;;;22.35;46.82;98963.19;5014368;28;19947;-76
2023/09/21 01:05:40;;;;;;;;;;;;;;;22.31;46.79;98956.56;5014561;28;19924;-76
2023/09/21 01:08:10;;;;;;;;;;;;;;;22.28;46.67;98957.75;5013843;28;19928;-76
2023/09/21 01:10:38;;;;;;;;;;;;;;;22.24;46.77;98953.81;5030586;28;19931;-76
2023/09/21 01:13:03;;;;;;;;;;;;;;;22.24;46.59;98956.47;5030500;28;20403;-76
2023/09/21 01:15:29;;;;;;;;;;;;;;;22.21;46.83;98959.50;5031397;28;20012;-76
2023/09/21 01:17:54;;;;;;;;;;;;;;;22.18;46.95;98950.06;5030241;28;19933;-76
2023/09/21 01:20:23;;;;;;;;;;;;;;;22.18;47.13;98949.25;5030150;28;19917;-76
2023/09/21 01:22:58;;;;;;;;;;;;;;;22.18;46.99;98950.06;5031570;28;20012;-75
2023/09/21 01:25:24;;;;;;;;;;;;;;;22.17;46.91;98955.56;5031043;28;19921;-76
2023/09/21 01:27:51;;;;;;;;;;;;;;;22.16;46.92;98962.72;5013737;28;19921;-75
2023/09/21 01:30:17;;;;;;;;;;;;;;;22.16;47.16;98960.06;5029940;28;19924;-76
2023/09/21 01:32:42;;;;;;;;;;;;;;;22.16;47.25;98956.59;5031147;28;19921;-77
2023/09/21 01:35:09;;;;;;;;;;;;;;;22.14;47.37;98964.75;5030065;28;19917;-78
2023/09/21 01:37:35;;;;;;;;;;;;;;;22.12;46.97;98961.44;5030036;28;19925;-78
2023/09/21 01:40:01;;;;;;;;;;;;;;;22.11;47.29;98957.16;5031239;28;20372;-77
2023/09/21 01:42:26;;;;;;;;;;;;;;;22.10;47.18;98960.81;5031295;28;19921;-78
2023/09/21 01:44:51;;;;;;;;;;;;;;;22.09;47.28;98959.16;5030091;28;19917;-77
2023/09/21 01:47:18;;;;;;;;;;;;;;;22.08;47.16;98954.84;5013081;28;19928;-77
2023/09/21 01:49:44;;;;;;;;;;;;;;;22.08;47.08;98943.41;5013677;28;19922;-77
2023/09/21 01:52:09;;;;;;;;;;;;;;;22.05;47.34;98947.25;5013441;28;19929;-78
2023/09/21 01:54:36;;;;;;;;;;;;;;;22.05;47.24;98947.25;5029981;28;19921;-78
2023/09/21 01:57:05;;;;;;;;;;;;;;;22.06;47.17;98946.25;5029696;28;19964;-77
2023/09/21 01:59:31;;;;;;;;;;;;;;;22.02;47.39;98940.47;5029717;28;20364;-77
2023/09/21 02:01:56;;;;;;;;;;;;;;;22.02;47.25;98947.63;5029467;28;20067;-77
2023/09/21 02:04:21;;;;;;;;;;;;;;;21.99;47.29;98937.38;5030318;28;19917;-77
2023/09/21 02:06:47;;;;;;;;;;;;;;;21.98;47.48;98944.53;5031073;28;19917;-77
2023/09/21 02:09:15;;;;;;;;;;;;;;;21.97;47.25;98942.06;5030537;28;19918;-77
2023/09/21 02:11:40;;;;;;;;;;;;;;;22.00;47.17;98945.16;5030832;28;19917;-77
2023/09/21 02:14:06;;;;;;;;;;;;;;;21.98;47.47;98941.88;5030682;28;19932;-77
2023/09/21 02:16:31;;;;;;;;;;;;;;;21.95;47.58;98939.56;5029207;28;19921;-77
2023/09/21 02:18:56;;;;;;;;;;;;;;;21.95;47.56;98949.34;5028411;28;19921;-77
2023/09/21 02:21:22;;;;;;;;;;;;;;;21.93;47.57;98943.41;5030774;28;19928;-77
2023/09/21 02:23:47;;;;;;;;;;;;;;;21.92;47.53;98939.94;5030762;28;19924;-78
2023/09/21 02:26:12;;;;;;;;;;;;;;;21.92;47.57;98933.78;5029663;28;19917;-78
2023/09/21 02:28:38;;;;;;;;;;;;;;;21.91;47.62;98935.63;5012776;28;20011;-77
2023/09/21 02:31:06;;;;;;;;;;;;;;;21.88;47.62;98930.69;5030942;28;20380;-77
2023/09/21 02:33:33;;;;;;;;;;;;;;;21.84;47.92;98926.75;5029414;28;19983;-77
2023/09/21 02:35:59;;;;;;;;;;;;;;;21.85;47.87;98926.59;5029579;28;20407;-77
2023/09/21 02:38:26;;;;;;;;;;;;;;;21.82;47.59;98928.75;5029325;28;19921;-77
2023/09/21 02:40:52;;;;;;;;;;;;;;;21.83;47.72;98930.41;5029153;28;19917;-77
2023/09/21 02:43:18;;;;;;;;;;;;;;;21.81;47.71;98927.94;5029476;28;19921;-78
2023/09/21 02:45:44;;;;;;;;;;;;;;;21.79;47.56;98927.31;5012358;28;20722;-77
2023/09/21 02:48:10;;;;;;;;;;;;;;;21.80;47.84;98922.81;5030090;28;20446;-78
2023/09/21 02:50:35;;;;;;;;;;;;;;;21.81;47.68;98919.16;5029391;28;19917;-77
2023/09/21 02:53:04;;;;;;;;;;;;;;;21.78;47.76;98923.00;5029356;28;19927;-77
2023/09/21 02:55:29;;;;;;;;;;;;;;;21.80;47.72;98925.47;5030206;28;20430;-77
2023/09/21 02:57:55;;;;;;;;;;;;;;;21.78;47.64;98925.66;5029218;28;19976;-77
2023/09/21 03:00:21;;;;;;;;;;;;;;;21.77;47.82;98925.84;5028931;28;19921;-78
2023/09/21 03:02:49;;;;;;;;;;;;;;;21.75;47.80;98927.88;5029475;28;20297;-77
2023/09/21 03:05:16;;;;;;;;;;;;;;;21.74;47.63;98921.72;5029415;28;19917;-77
2023/09/21 03:07:43;;;;;;;;;;;;;;;21.75;47.61;98930.53;5012271;28;20099;-77
2023/09/21 03:10:10;;;;;;;;;;;;;;;21.76;47.72;98926.84;5012935;28;19951;-77
2023/09/21 03:12:37;;;;;;;;;;;;;;;21.79;47.90;98932.63;5029962;28;19986;-75
2023/09/21 03:15:04;;;;;;;;;;;;;;;21.81;47.90;98930.59;5029142;28;20019;-76
2023/09/21 03:17:29;;;;;;;;;;;;;;;21.76;47.93;98922.38;5003040;28;20323;-77
2023/09/21 03:19:55;;;;;;;;;;;;;;;21.74;47.72;98920.91;5009764;28;19917;-77
2023/09/21 03:22:21;;;;;;;;;;;;;;;21.71;47.97;98922.06;5021877;28;19921;-76
2023/09/21 03:24:47;;;;;;;;;;;;;;;21.69;48.08;98927.56;5032790;28;20028;-76
2023/09/21 03:27:14;;;;;;;;;;;;;;;21.69;48.01;98930.22;5032400;28;20012;-77
2023/09/21 03:29:39;;;;;;;;;;;;;;;21.66;48.11;98927.13;5031961;28;19979;-77
2023/09/21 03:32:04;;;;;;;;;;;;;;;21.67;48.09;98928.78;5032151;28;19921;-78
2023/09/21 03:34:30;;;;;;;;;;;;;;;21.66;48.04;98935.94;5032494;28;20380;-78
2023/09/21 03:36:57;;;;;;;;;;;;;;;21.61;48.36;98935.66;5032951;28;19929;-76
2023/09/21 03:39:27;;;;;;;;;;;;;;;21.61;49.23;98933.00;5032632;28;19960;-72
2023/09/21 03:41:56;;;;;;;;;;;;;;;21.53;49.73;98932.28;5033794;28;19996;-75
2023/09/21 03:44:22;;;;;;;;;;;;;;;21.74;49.99;98926.22;5033660;28;19947;-75
2023/09/21 03:46:48;;;;;;;;;;;;;;;21.99;49.86;98924.88;5033126;28;19921;-73
2023/09/21 03:49:15;;;;;;;;;;;;;;;22.21;48.79;98925.75;5033187;28;20075;-72
2023/09/21 03:51:40;;;;;;;;;;;;;;;22.26;48.08;98930.50;5032100;28;20362;-82
2023/09/21 03:54:06;;;;;;;;;;;;;;;22.33;48.46;98926.13;5032656;28;19924;-75
2023/09/21 03:56:31;;;;;;;;;;;;;;;22.49;48.61;98929.56;5032442;28;19924;-76
2023/09/21 03:58:56;;;;;;;;;;;;;;;22.58;48.09;98923.94;5034451;28;19925;-77
2023/09/21 04:01:22;;;;;;;;;;;;;;;22.57;47.71;98927.59;5034222;28;19975;-72
2023/09/21 04:03:53;;;;;;;;;;;;;;;22.56;47.41;98931.25;5032545;28;19975;-71
2023/09/21 04:06:18;;;;;;;;;;;;;;;22.57;47.47;98927.59;5016995;28;19917;-70
2023/09/21 04:08:44;;;;;;;;;;;;;;;22.59;47.30;98930.88;5033920;28;20470;-71
2023/09/21 04:11:09;;;;;;;;;;;;;;;22.65;47.32;98931.97;5016283;28;19933;-71
2023/09/21 04:13:34;;;;;;;;;;;;;;;22.67;46.51;98931.78;5033232;28;19943;-77
2023/09/21 04:16:04;;;;;;;;;;;;;;;22.57;46.39;98938.22;5032898;28;20080;-78
2023/09/21 04:18:29;;;;;;;;;;;;;;;22.72;46.09;98927.53;5032920;28;19921;-78
2023/09/21 04:20:54;;;;;;;;;;;;;;;22.87;45.57;98922.13;5031694;28;19917;-77
2023/09/21 04:23:21;;;;;;;;;;;;;;;23.14;45.14;98926.88;5032849;28;19921;-79
2023/09/21 04:25:47;;;;;;;;;;;;;;;23.46;44.23;98923.59;5032328;28;19924;-77
2023/09/21 04:28:12;;;;;;;;;;;;;;;23.79;43.27;98928.28;5034400;28;19921;-77
2023/09/21 04:30:37;;;;;;;;;;;;;;;23.99;42.86;98928.41;5032925;28;19924;-76
2023/09/21 04:33:03;;;;;;;;;;;;;;;23.84;43.08;98936.53;5032123;28;20396;-76
2023/09/21 04:35:29;;;;;;;;;;;;;;;23.93;42.96;98939.03;5032663;28;19921;-77
2023/09/21 04:37:56;;;;;;;;;;;;;;;24.07;42.66;98930.06;5015764;28;20008;-78
2023/09/21 04:40:23;;;;;;;;;;;;;;;24.88;41.11;98936.41;5032720;28;20022;-78
2023/09/21 04:42:48;;;;;;;;;;;;;;;25.51;39.73;98940.47;5033695;28;19921;-77
2023/09/21 04:45:15;;;;;;;;;;;;;;;26.07;38.55;98950.59;5033908;28;20388;-77
2023/09/21 04:47:45;;;;;;;;;;;;;;;26.68;37.37;98946.59;5032004;28;19921;-77
2023/09/21 04:50:10;;;;;;;;;;;;;;;26.95;37.02;98933.00;5016688;28;20321;-78
2023/09/21 04:52:36;;;;;;;;;;;;;;;27.59;35.30;98933.63;5032486;28;19963;-79
2023/09/21 04:55:04;;;;;;;;;;;;;;;28.09;34.67;98939.91;5032486;28;19917;-79
2023/09/21 04:57:30;;;;;;;;;;;;;;;28.67;33.51;98939.31;5032089;28;19928;-77
2023/09/21 04:59:59;;;;;;;;;;;;;;;29.23;32.71;98952.50;5026474;28;19921;-78
2023/09/21 05:02:24;;;;;;;;;;;;;;;29.64;31.85;98949.91;5025303;28;19978;-80
2023/09/21 05:04:50;;;;;;;;;;;;;;;30.10;31.60;98954.34;5015623;28;19921;-76
2023/09/21 05:07:17;;;;;;;;;;;;;;;29.95;31.49;98954.88;5033089;28;19927;-75
2023/09/21 05:09:43;;;;;;;;;;;;;;;30.11;31.58;98953.31;5031520;28;19925;-74
2023/09/21 05:12:08;;;;;;;;;;;;;;;30.54;30.84;98950.34;5031677;28;19963;-74
2023/09/21 05:14:34;;;;;;;;;;;;;;;31.11;29.96;98952.94;5031623;28;19956;-72
2023/09/21 05:16:59;;;;;;;;;;;;;;;31.36;29.67;98948.97;5033368;28;20261;-81
2023/09/21 05:19:25;;;;;;;;;;;;;;;30.72;30.56;98957.38;5015662;28;20403;-80
2023/09/21 05:21:50;;;;;;;;;;;;;;;30.13;31.53;98955.75;5034049;28;19928;-80
2023/09/21 05:24:16;;;;;;;;;;;;;;;29.70;32.08;98957.84;5032087;28;19975;-82
2023/09/21 05:26:42;;;;;;;;;;;;;;;29.58;32.52;98962.41;5031380;28;19921;-82
2023/09/21 05:29:08;;;;;;;;;;;;;;;29.17;33.44;98967.66;5033538;28;19975;-88
2023/09/21 05:31:35;;;;;;;;;;;;;;;28.80;33.99;98970.53;5039879;28;19917;-85
2023/09/21 05:34:02;;;;;;;;;;;;;;;28.61;34.37;98967.09;5018486;28;19921;-87
2023/09/21 05:36:29;;;;;;;;;;;;;;;28.50;34.63;98959.78;5033411;28;19944;-88
2023/09/21 05:38:55;;;;;;;;;;;;;;;28.46;34.57;98972.84;5014557;28;19925;-85
2023/09/21 05:41:21;;;;;;;;;;;;;;;28.99;34.16;98973.13;5013908;28;19917;-85
2023/09/21 05:43:49;;;;;;;;;;;;;;;29.72;32.85;98966.47;5031598;28;19940;-85
2023/09/21 05:46:14;;;;;;;;;;;;;;;30.31;32.12;98971.75;5033698;28;20765;-89
2023/09/21 05:48:40;;;;;;;;;;;;;;;30.91;31.61;98969.56;5034285;28;19951;-79
2023/09/21 05:51:10;;;;;;;;;;;;;;;31.50;30.50;98961.03;5037475;28;19924;-86
2023/09/21 05:53:35;;;;;;;;;;;;;;;31.82;30.16;98964.97;5041551;28;19956;-88
2023/09/21 05:56:04;;;;;;;;;;;;;;;32.08;29.49;98963.41;5020643;28;19912;-84
2023/09/21 05:58:30;;;;;;;;;;;;;;;32.49;29.16;98963.06;5031822;28;19925;-77
2023/09/21 06:00:59;;;;;;;;;;;;;;;32.87;29.12;98970.16;5033844;28;19918;-84
2023/09/21 06:03:27;;;;;;;;;;;;;;;33.22;27.99;98962.63;5010743;28;19921;-79
2023/09/21 06:05:53;;;;;;;;;;;;;;;33.63;27.41;98963.66;5031834;28;19945;-81
2023/09/21 06:08:19;;;;;;;;;;;;;;;33.93;26.50;98958.69;5031380;28;19921;-78
2023/09/21 06:10:44;;;;;;;;;;;;;;;34.11;26.73;98962.78;5031635;28;19929;-79
2023/09/21 06:13:10;;;;;;;;;;;;;;;34.24;26.18;98965.03;5031859;28;19970;-79
2023/09/21 06:15:37;;;;;;;;;;;;;;;34.55;25.73;98962.38;5031381;28;19917;-79
2023/09/21 06:18:03;;;;;;;;;;;;;;;34.77;25.10;98960.25;5030899;28;19931;-80
2023/09/21 06:20:29;;;;;;;;;;;;;;;34.86;25.06;98965.13;5031873;28;19917;-80
2023/09/21 06:22:54;;;;;;;;;;;;;;;34.96;24.73;98963.25;5015398;28;20279;-84
2023/09/21 06:25:21;;;;;;;;;;;;;;;34.90;25.03;98955.34;5031746;28;19987;-81
2023/09/21 06:27:46;;;;;;;;;;;;;;;34.95;24.59;98960.81;5031542;28;20408;-79
2023/09/21 06:30:12;;;;;;;;;;;;;;;34.96;24.68;98954.28;5011613;28;20009;-74
2023/09/21 06:32:39;;;;;;;;;;;;;;;34.93;24.91;98957.53;5025513;28;19956;-86
2023/09/21 06:35:07;;;;;;;;;;;;;;;34.87;24.95;98959.44;5033359;28;19964;-79
2023/09/21 06:37:36;;;;;;;;;;;;;;;34.93;25.04;98960.25;5032200;28;20353;-76
2023/09/21 06:40:01;;;;;;;;;;;;;;;35.02;24.73;98961.31;5031430;28;20024;-78
2023/09/21 06:42:27;;;;;;;;;;;;;;;35.08;24.53;98956.72;5015757;28;20376;-80
2023/09/21 06:44:54;;;;;;;;;;;;;;;35.14;24.53;98961.84;5033138;28;19917;-75
2023/09/21 06:47:21;;;;;;;;;;;;;;;35.32;24.69;98970.53;5031796;28;19922;-77
2023/09/21 06:49:47;;;;;;;;;;;;;;;35.39;24.71;98964.81;5030716;28;19978;-77
2023/09/21 06:52:13;;;;;;;;;;;;;;;35.47;24.83;98964.25;5031275;28;19921;-76
2023/09/21 06:54:40;;;;;;;;;;;;;;;35.55;24.75;98966.41;5026697;28;20028;-76
2023/09/21 06:57:08;;;;;;;;;;;;;;;35.59;24.06;98963.94;5033171;28;19921;-79
2023/09/21 06:59:36;;;;;;;;;;;;;;;35.58;24.19;98965.88;5036091;28;19924;-75
2023/09/21 07:02:01;;;;;;;;;;;;;;;35.64;24.16;98961.22;5011613;28;19922;-77
2023/09/21 07:04:28;;;;;;;;;;;;;;;35.74;24.83;98961.19;5014652;28;19924;-74
2023/09/21 07:06:54;;;;;;;;;;;;;;;36.16;24.39;98969.97;5019421;28;19979;-71
2023/09/21 07:09:19;;;;;;;;;;;;;;;36.42;24.24;98967.97;5018034;28;20391;-74
2023/09/21 07:11:44;;;;;;;;;;;;;;;36.71;23.86;98970.72;5033879;28;19917;-70
2023/09/21 07:14:10;;;;;;;;;;;;;;;36.89;23.53;98971.16;5034651;28;20381;-71
2023/09/21 07:16:35;;;;;;;;;;;;;;;37.04;23.44;98972.94;5034697;28;19967;-69
2023/09/21 07:19:00;;;;;;;;;;;;;;;37.02;23.19;98969.66;5026319;28;19921;-71
2023/09/21 07:21:26;;;;;;;;;;;;;;;37.17;23.50;98972.25;5014291;28;19983;-72
2023/09/21 07:23:51;;;;;;;;;;;;;;;37.29;22.90;98964.53;5016644;28;19920;-70
2023/09/21 07:26:17;;;;;;;;;;;;;;;37.24;23.20;98963.78;5034252;28;20296;-70
2023/09/21 07:28:44;;;;;;;;;;;;;;;37.10;23.00;98959.00;5033646;28;19921;-70
2023/09/21 07:31:09;;;;;;;;;;;;;;;37.38;23.11;98970.16;5016995;28;19929;-77
2023/09/21 07:33:35;;;;;;;;;;;;;;;36.69;23.67;98967.47;5025029;28;19921;-76
2023/09/21 07:36:02;;;;;;;;;;;;;;;36.09;23.90;98964.88;5013580;28;19929;-77
2023/09/21 07:38:27;;;;;;;;;;;;;;;35.63;24.27;98974.00;5033558;28;19928;-78
2023/09/21 07:40:53;;;;;;;;;;;;;;;35.36;25.35;98968.06;5033939;28;19917;-79
2023/09/21 07:43:18;;;;;;;;;;;;;;;35.14;26.22;98969.19;5003447;28;19940;-82
2023/09/21 07:45:47;;;;;;;;;;;;;;;34.89;26.35;98972.72;4997945;28;19921;-83
2023/09/21 07:48:13;;;;;;;;;;;;;;;34.63;26.65;98971.88;5015642;28;19928;-74
2023/09/21 07:50:38;;;;;;;;;;;;;;;34.56;26.98;98964.81;5033749;28;19923;-76
2023/09/21 07:53:04;;;;;;;;;;;;;;;34.35;26.78;98968.56;5033457;28;20020;-74
2023/09/21 07:55:29;;;;;;;;;;;;;;;34.19;26.54;98971.22;5032847;28;19921;-74
2023/09/21 07:57:55;;;;;;;;;;;;;;;34.13;27.37;98971.47;5033762;28;19947;-76
2023/09/21 08:00:20;;;;;;;;;;;;;;;34.50;27.00;98974.00;5033137;28;19925;-73
2023/09/21 08:02:45;;;;;;;;;;;;;;;34.35;26.95;98961.28;5034960;28;19929;-74
2023/09/21 08:05:10;;;;;;;;;;;;;;;34.71;26.61;98965.91;5033247;28;19921;-76
2023/09/21 08:07:36;;;;;;;;;;;;;;;34.53;26.81;98961.84;5033563;28;19921;-80
2023/09/21 08:10:01;;;;;;;;;;;;;;;34.95;26.92;98958.91;5033521;28;19964;-77
2023/09/21 08:12:27;;;;;;;;;;;;;;;35.25;25.80;98957.25;5033494;28;19968;-79
2023/09/21 08:14:53;;;;;;;;;;;;;;;35.50;25.35;98956.38;5021870;28;19985;-79
2023/09/21 08:17:18;;;;;;;;;;;;;;;35.61;25.55;98959.06;5022011;28;19944;-76
2023/09/21 08:19:44;;;;;;;;;;;;;;;35.78;25.27;98958.75;5021374;28;20011;-77
2023/09/21 08:22:09;;;;;;;;;;;;;;;35.95;24.39;98964.66;5025279;28;19925;-74
2023/09/21 08:24:36;;;;;;;;;;;;;;;36.39;23.62;98955.72;5033699;28;19917;-74
2023/09/21 08:27:02;;;;;;;;;;;;;;;37.02;22.96;98962.34;5036856;28;19921;-74
2023/09/21 08:29:27;;;;;;;;;;;;;;;36.98;23.06;98964.00;5040069;28;19918;-77
2023/09/21 08:31:53;;;;;;;;;;;;;;;36.49;23.38;98954.03;5039834;28;20008;-74
2023/09/21 08:34:21;;;;;;;;;;;;;;;36.26;23.71;98953.63;5038745;28;19917;-76
2023/09/21 08:36:47;;;;;;;;;;;;;;;35.95;23.96;98953.78;5038673;28;20015;-73
2023/09/21 08:39:12;;;;;;;;;;;;;;;35.66;24.20;98953.59;5037455;28;19948;-74
2023/09/21 08:41:39;;;;;;;;;;;;;;;36.05;23.90;98947.47;5018793;28;19921;-74
2023/09/21 08:44:05;;;;;;;;;;;;;;;36.46;24.02;98947.25;5033248;28;19921;-75
2023/09/21 08:46:30;;;;;;;;;;;;;;;36.94;23.67;98946.63;5015936;28;19920;-74
2023/09/21 08:48:58;;;;;;;;;;;;;;;37.01;23.30;98943.59;5033655;28;19924;-75
2023/09/21 08:51:23;;;;;;;;;;;;;;;36.96;23.18;98946.34;5016164;28;19927;-75
2023/09/21 08:53:51;;;;;;;;;;;;;;;37.21;22.72;98935.25;5015659;28;20015;-74
2023/09/21 08:56:17;;;;;;;;;;;;;;;37.54;21.85;98937.31;5015921;28;19944;-75
2023/09/21 08:58:43;;;;;;;;;;;;;;;37.90;21.81;98937.69;5031839;28;20388;-74
2023/09/21 09:01:08;;;;;;;;;;;;;;;38.14;21.69;98936.84;5032478;28;19921;-75
2023/09/21 09:03:34;;;;;;;;;;;;;;;37.60;22.17;98928.00;5031858;28;19924;-76
2023/09/21 09:05:59;;;;;;;;;;;;;;;37.22;22.70;98915.06;5033347;28;19941;-74
2023/09/21 09:08:30;;;;;;;;;;;;;;;36.77;23.19;98928.03;5033448;28;20278;-75
2023/09/21 09:10:56;;;;;;;;;;;;;;;36.54;23.16;98924.09;5032468;28;19925;-75
2023/09/21 09:13:26;;;;;;;;;;;;;;;36.26;23.51;98929.19;5032019;28;20361;-75
2023/09/21 09:15:52;;;;;;;;;;;;;;;36.02;23.45;98927.13;5031554;28;20012;-74
2023/09/21 09:18:17;;;;;;;;;;;;;;;36.13;23.57;98927.88;5031209;28;20003;-78
2023/09/21 09:20:46;;;;;;;;;;;;;;;36.33;23.40;98926.16;5031814;28;19974;-77
2023/09/21 09:23:13;;;;;;;;;;;;;;;36.78;23.25;98923.38;5033295;28;19917;-77
2023/09/21 09:25:38;;;;;;;;;;;;;;;37.18;22.78;98926.78;5031325;28;19921;-77
2023/09/21 09:28:04;;;;;;;;;;;;;;;37.14;22.36;98928.50;5032432;28;19924;-76
2023/09/21 09:30:29;;;;;;;;;;;;;;;37.27;22.35;98923.22;5032638;28;19921;-77
2023/09/21 09:32:55;;;;;;;;;;;;;;;37.11;22.55;98930.66;5033020;28;19960;-75
2023/09/21 09:35:21;;;;;;;;;;;;;;;37.09;22.65;98926.63;5031146;28;19917;-75
2023/09/21 09:37:49;;;;;;;;;;;;;;;37.54;21.92;98927.22;5032949;28;20348;-76
2023/09/21 09:40:18;;;;;;;;;;;;;;;37.33;21.69;98917.69;5031362;28;19921;-73
2023/09/21 09:42:43;;;;;;;;;;;;;;;37.15;22.04;98924.66;5031494;28;20446;-75
2023/09/21 09:45:11;;;;;;;;;;;;;;;36.93;22.55;98921.34;5031602;28;19921;-76
2023/09/21 09:47:39;;;;;;;;;;;;;;;36.70;23.17;98920.13;5030829;28;19921;-74
2023/09/21 09:50:06;;;;;;;;;;;;;;;36.45;23.15;98915.72;5014818;28;20304;-74
2023/09/21 09:52:31;;;;;;;;;;;;;;;36.16;23.69;98913.72;5032358;28;19921;-76
2023/09/21 09:54:59;;;;;;;;;;;;;;;35.88;24.15;98911.72;5031163;28;20451;-74
2023/09/21 09:57:25;;;;;;;;;;;;;;;35.65;24.40;98913.97;5030744;28;20316;-75
2023/09/21 09:59:50;;;;;;;;;;;;;;;35.43;24.63;98919.78;5031423;28;19917;-75
2023/09/21 10:02:19;;;;;;;;;;;;;;;35.22;24.97;98899.97;5030785;28;19921;-75
2023/09/21 10:04:46;;;;;;;;;;;;;;;35.09;24.82;98904.91;5031128;28;19921;-75
2023/09/21 10:07:15;;;;;;;;;;;;;;;35.06;24.97;98902.75;5032117;28;19943;-75
2023/09/21 10:09:41;;;;;;;;;;;;;;;35.25;24.62;98904.88;5030956;28;20372;-77
2023/09/21 10:12:07;;;;;;;;;;;;;;;35.40;24.67;98910.25;5014373;28;20051;-75
2023/09/21 10:14:36;;;;;;;;;;;;;;;35.32;24.67;98905.41;5031991;28;20010;-76
2023/09/21 10:17:03;;;;;;;;;;;;;;;35.23;25.03;98901.59;5014499;28;19923;-80
2023/09/21 10:19:29;;;;;;;;;;;;;;;35.12;25.12;98892.69;5014307;28;19968;-76
2023/09/21 10:21:59;;;;;;;;;;;;;;;35.09;24.83;98888.63;5030720;28;20375;-77
2023/09/21 10:24:27;;;;;;;;;;;;;;;35.07;25.11;98885.38;5014544;28;20000;-76
2023/09/21 10:26:53;;;;;;;;;;;;;;;35.07;24.88;98879.94;5014210;28;20319;-76
2023/09/21 10:29:28;;;;;;;;;;;;;;;35.08;25.25;98869.91;5031529;28;19917;-76
2023/09/21 10:31:54;;;;;;;;;;;;;;;35.04;25.36;98879.69;5014267;28;20003;-78
2023/09/21 10:34:21;;;;;;;;;;;;;;;34.99;25.16;98877.78;5030668;28;19921;-81
2023/09/21 10:37:18;;;;;;;;;;;;;;;34.90;25.59;98868.59;5014691;28;20019;-81
2023/09/21 10:39:43;;;;;;;;;;;;;;;34.93;25.08;98865.31;5030445;28;20035;-84
2023/09/21 10:42:09;;;;;;;;;;;;;;;34.90;25.47;98852.31;5011466;28;20440;-81
2023/09/21 10:44:52;;;;;;;;;;;;;;;34.77;25.46;98857.22;5011134;28;19917;-82
2023/09/21 10:47:35;;;;;;;;;;;;;;;34.66;25.33;98850.16;5022649;28;19917;-80
2023/09/21 10:50:02;;;;;;;;;;;;;;;34.66;24.82;98839.31;5013572;28;20406;-82
2023/09/21 10:52:28;;;;;;;;;;;;;;;34.47;24.04;98835.53;5000268;28;19918;-81
2023/09/21 10:54:53;;;;;;;;;;;;;;;34.46;24.49;98831.19;4994045;28;19975;-82
2023/09/21 10:57:24;;;;;;;;;;;;;;;34.38;24.73;98836.09;5005896;28;19968;-78
2023/09/21 10:59:50;;;;;;;;;;;;;;;34.26;24.76;98832.84;5014839;28;19925;-86
2023/09/21 11:02:16;;;;;;;;;;;;;;;34.23;24.75;98834.19;5031832;28;20003;-85
2023/09/21 11:04:42;;;;;;;;;;;;;;;34.27;25.06;98828.22;5029409;28;19917;-77
2023/09/21 11:07:08;;;;;;;;;;;;;;;34.33;25.08;98832.56;5010589;28;19981;-89
2023/09/21 11:09:35;;;;;;;;;;;;;;;34.32;24.68;98823.63;4999697;28;20342;-87
2023/09/21 11:12:00;;;;;;;;;;;;;;;34.31;24.92;98823.91;5019637;28;20343;-86
2023/09/21 11:14:26;;;;;;;;;;;;;;;34.30;24.68;98814.13;5020923;28;19957;-88
2023/09/21 11:16:53;;;;;;;;;;;;;;;34.31;24.92;98810.34;5039353;28;19928;-85
2023/09/21 11:19:18;;;;;;;;;;;;;;;34.35;24.83;98809.53;5036108;28;19928;-84
2023/09/21 11:21:44;;;;;;;;;;;;;;;34.34;24.86;98804.41;5034372;28;19925;-86
2023/09/21 11:24:09;;;;;;;;;;;;;;;34.21;25.06;98803.03;5039461;28;19921;-85
2023/09/21 11:26:35;;;;;;;;;;;;;;;34.24;25.13;98803.31;5017343;28;20389;-82
2023/09/21 11:29:02;;;;;;;;;;;;;;;34.32;24.70;98795.75;5032874;28;19917;-82
2023/09/21 11:31:28;;;;;;;;;;;;;;;34.28;24.41;98803.56;5033290;28;19924;-83
2023/09/21 11:33:53;;;;;;;;;;;;;;;34.27;24.28;98793.00;5031963;28;20015;-80
2023/09/21 11:36:20;;;;;;;;;;;;;;;34.22;24.58;98793.78;5014589;28;20391;-81
2023/09/21 11:38:45;;;;;;;;;;;;;;;34.00;25.33;98789.47;5014732;28;19918;-85
2023/09/21 11:41:11;;;;;;;;;;;;;;;33.96;25.54;98780.25;5015370;28;20300;-79
2023/09/21 11:43:36;;;;;;;;;;;;;;;33.78;25.17;98783.47;5035087;28;20058;-82
2023/09/21 11:46:03;;;;;;;;;;;;;;;33.52;24.91;98781.50;5034890;28;19956;-82
2023/09/21 11:48:29;;;;;;;;;;;;;;;33.30;25.33;98772.78;5035133;28;19921;-81
2023/09/21 11:50:54;;;;;;;;;;;;;;;33.28;25.27;98770.34;5019953;28;19917;-86
2023/09/21 11:53:20;;;;;;;;;;;;;;;33.25;25.43;98768.16;5026713;28;20369;-91
2023/09/21 11:55:47;;;;;;;;;;;;;;;33.20;25.50;98761.94;5165338;22;20459;-91
2023/09/21 11:58:15;;;;;;;;;;;;;;;33.05;25.74;98760.78;5015527;28;19922;-92
2023/09/21 12:00:45;;;;;;;;;;;;;;;32.77;25.95;98751.97;5017283;28;20282;-89
2023/09/21 12:03:13;;;;;;;;;;;;;;;32.32;25.89;98753.28;4992694;28;19929;-91
2023/09/21 12:05:42;;;;;;;;;;;;;;;32.22;26.28;98750.53;5020634;28;20369;-89
2023/09/21 12:08:10;;;;;;;;;;;;;;;32.23;26.44;98744.88;4986226;28;19922;-83
2023/09/21 12:10:35;;;;;;;;;;;;;;;32.09;26.07;98741.78;4997888;28;20016;-87
2023/09/21 12:13:03;;;;;;;;;;;;;;;32.03;26.21;98745.47;4994005;28;19965;-75
2023/09/21 12:15:28;;;;;;;;;;;;;;;32.07;26.21;98741.22;5001743;28;19922;-77
2023/09/21 12:17:53;;;;;;;;;;;;;;;32.11;26.06;98749.63;5001126;28;20408;-74
2023/09/21 12:20:20;;;;;;;;;;;;;;;32.12;26.13;98736.94;5002530;28;19967;-75
2023/09/21 12:22:45;;;;;;;;;;;;;;;32.10;26.21;98734.50;5001374;28;19934;-75
2023/09/21 12:25:11;;;;;;;;;;;;;;;32.16;26.20;98727.25;5004769;28;19924;-75
2023/09/21 12:27:38;;;;;;;;;;;;;;;32.12;26.44;98723.44;5010147;28;19922;-74
2023/09/21 12:30:12;;;;;;;;;;;;;;;32.17;26.46;98723.50;5013899;28;19940;-74
2023/09/21 12:32:38;;;;;;;;;;;;;;;32.23;26.39;98723.25;4983965;28;19921;-77
2023/09/21 12:35:07;;;;;;;;;;;;;;;32.31;26.24;98707.63;5012904;28;19921;-75
2023/09/21 12:37:32;;;;;;;;;;;;;;;32.18;26.45;98706.19;5000873;28;19933;-75
2023/09/21 12:39:58;;;;;;;;;;;;;;;32.13;26.16;98704.28;4993450;28;19918;-73
2023/09/21 12:42:23;;;;;;;;;;;;;;;32.10;26.26;98697.53;4994486;28;20309;-75
2023/09/21 12:44:48;;;;;;;;;;;;;;;32.14;26.41;98700.50;4976735;28;20420;-74